Latest Weather Observations for Blackwater Airport

IDQ60801

Issued at 6:02 am EST Wednesday 18 October 2017 (issued every 30 minutes, with the page automatically refreshed every 10 minutes)

About weather observations | Map of weather stations | Latest weather observations for QLD | Other Formats
Station Details ID: 035134 Name: BLACKWATER AIRPORT Lat: -23.60 Lon: 148.81 Height: 192.95 m
Data from the previous 72 hours. | See also: Recent months at Blackwater Airport
Date/Time
EST
Temp
°C
App
Temp
°C
Dew
Point
°C
Rel
Hum
%
Delta-T
°C
Wind Press
QNH
hPa
Press
MSL
hPa
Rain since
9am
mm
Dir  Spd
km/h
Gust
km/h
Spd
kts
Gust
kts
18/06:00am 20.5 20.1 19.0 91 0.9 E 19 24 10 13 1015.4 1014.4 4.4
18/05:30am 20.2 19.8 18.9 92 0.8 E 19 26 10 14 1015.2 1014.2 4.4
18/05:00am 20.0 19.9 18.8 93 0.8 E 17 24 9 13 1014.9 1013.9 4.4
18/04:30am 20.1 19.1 18.8 92 0.8 E 22 35 12 19 1014.6 1013.6 4.2
18/04:00am 20.3 20.4 19.1 93 0.8 E 17 26 9 14 1014.7 1013.7 4.0
18/03:30am 20.3 20.7 19.1 93 0.8 E 15 20 8 11 1014.7 1013.7 3.8
18/03:00am 20.1 21.0 19.3 95 0.5 ENE 13 17 7 9 1014.7 1013.7 3.8
18/02:30am 20.4 21.7 19.2 93 0.8 ESE 11 15 6 8 1014.4 1013.4 0.4
18/02:00am 20.3 21.5 19.1 93 0.8 ESE 11 17 6 9 1014.6 1013.6 0.4
18/01:30am 20.3 20.7 19.0 92 0.8 E 15 19 8 10 1015.1 1014.1 0.2
18/01:00am 20.3 20.2 18.8 91 0.9 E 17 24 9 13 1015.3 1014.3 0.2
18/12:30am 20.3 19.8 19.0 92 0.8 E 20 28 11 15 1015.4 1014.4 0.2
18/12:00am 20.5 18.3 18.8 90 1.1 E 28 41 15 22 1015.4 1014.4 0.2
 
Date/Time
EST
Temp
°C
App
Temp
°C
Dew
Point
°C
Rel
Hum
%
Delta-T
°C
Wind Press
QNH
hPa
Press
MSL
hPa
Rain since
9am
mm
Dir  Spd
km/h
Gust
km/h
Spd
kts
Gust
kts
17/11:30pm 21.2 19.5 18.9 87 1.5 E 26 33 14 18 1015.5 1014.5 0.2
17/11:00pm 21.6 21.0 18.8 84 1.8 E 20 30 11 16 1015.4 1014.4 0.2
17/10:30pm 21.9 20.8 18.7 82 2.0 ENE 22 30 12 16 1015.1 1014.1 0.2
17/10:00pm 22.3 21.8 18.7 80 2.3 E 19 26 10 14 1015.0 1014.0 0.2
17/09:30pm 22.5 22.9 18.9 80 2.3 ENE 15 24 8 13 1015.1 1014.1 0.2
17/09:00pm 22.6 24.5 19.0 80 2.3 ESE 7 9 4 5 1015.0 1014.0 0.2
17/08:30pm 22.8 24.6 18.8 78 2.5 ESE 7 11 4 6 1014.9 1013.9 0.2
17/08:00pm 22.9 23.9 18.7 77 2.7 E 11 15 6 8 1014.7 1013.7 0.2
17/07:30pm 22.5 23.7 19.1 81 2.2 ENE 11 17 6 9 1014.7 1013.7 0.2
17/07:00pm 22.5 24.9 18.9 80 2.3 ENE 4 7 2 4 1014.2 1013.2 0.2
17/06:30pm 22.6 25.9 19.2 81 2.2 CALM 0 6 0 3 1013.6 1012.7 0.2
17/06:00pm 22.8 24.3 19.0 79 2.4 NE 9 15 5 8 1013.5 1012.6 0.2
17/05:30pm 22.7 22.9 18.5 77 2.7 NNE 15 20 8 11 1013.4 1012.5 0.2
17/05:00pm 22.8 21.9 18.3 76 2.8 NE 20 32 11 17 1012.8 1011.9 0.2
17/04:30pm 25.6 25.1 17.8 62 4.9 NE 17 35 9 19 1012.4 1011.5 0.2
17/04:00pm 26.1 26.2 17.5 59 5.4 ENE 13 20 7 11 1012.0 1011.0 0.2
17/03:30pm 26.8 25.5 17.3 56 6.0 ENE 20 30 11 16 1011.8 1010.8 0.2
17/03:00pm 27.0 26.8 17.5 56 6.0 ENE 15 24 8 13 1012.0 1011.0 0.2
17/02:30pm 26.7 25.1 16.6 54 6.3 ENE 20 26 11 14 1012.1 1011.1 0.2
17/02:00pm 26.4 26.6 17.7 58 5.5 ENE 13 20 7 11 1012.1 1011.1 0.2
17/01:30pm 26.1 25.9 17.7 60 5.3 ENE 15 24 8 13 1012.7 1011.8 0.2
17/01:00pm 26.2 25.3 17.8 60 5.3 ENE 19 26 10 14 1013.0 1012.1 0.2
17/12:30pm 25.5 25.0 18.7 66 4.4 E 19 26 10 14 1013.9 1013.0 0.2
17/12:00pm 25.1 24.5 18.5 67 4.2 E 19 28 10 15 1014.5 1013.5 0.0
17/11:30am 24.3 24.3 18.9 72 3.5 E 17 24 9 13 1014.9 1013.9 0.0
17/11:00am 22.8 22.4 18.1 75 3.0 E 17 22 9 12 1015.3 1014.3 0.0
17/10:30am 22.5 21.0 17.6 74 3.1 ENE 22 32 12 17 1015.9 1014.9 0.0
17/10:00am 22.2 20.5 17.3 74 3.0 E 22 30 12 16 1015.9 1014.9 0.0
17/09:30am 21.8 21.2 17.6 77 2.6 E 17 20 9 11 1016.1 1015.1 0.0
17/09:00am 21.4 22.2 17.2 77 2.6 W 9 11 5 6 1016.2 1015.2 6.2
17/08:30am 21.1 22.0 17.5 80 2.2 WSW 9 13 5 7 1015.9 1014.9 6.2
17/08:00am 20.7 20.1 17.5 82 2.0 WSW 17 24 9 13 1015.3 1014.3 6.2
17/07:30am 21.8 21.4 18.0 79 2.4 ENE 17 24 9 13 1014.7 1013.7 6.2
17/07:00am 20.8 20.2 17.6 82 2.0 E 17 24 9 13 1013.7 1012.8 6.2
17/06:30am 20.0 19.7 17.4 85 1.6 E 15 24 8 13 1013.1 1012.2 6.2
17/06:00am 19.3 20.2 17.6 90 1.0 SE 9 11 5 6 1012.8 1011.9 6.2
17/05:30am 19.3 19.7 17.3 88 1.2 SE 11 15 6 8 1012.7 1011.8 6.2
17/05:00am 19.2 21.8 17.5 90 1.0 CALM 0 6 0 3 1012.8 1011.9 6.2
17/04:30am 19.4 20.5 17.9 91 0.9 S 9 9 5 5 1012.6 1011.7 6.2
17/04:00am 19.6 21.0 17.9 90 1.1 S 7 9 4 5 1012.6 1011.7 6.2
17/03:30am 19.5 21.1 17.8 90 1.1 SE 6 7 3 4 1012.4 1011.5 6.2
17/03:00am 19.5 21.3 18.2 92 0.8 SE 6 7 3 4 1012.3 1011.4 6.2
17/02:30am 19.3 20.7 17.8 91 0.9 ESE 7 9 4 5 1012.9 1012.0 6.2
17/02:00am 19.3 20.3 17.8 91 0.9 E 9 11 5 6 1013.2 1012.3 6.2
17/01:30am 19.3 20.3 17.8 91 0.9 ESE 9 13 5 7 1013.6 1012.7 6.2
17/01:00am 19.1 19.4 17.9 93 0.7 E 13 17 7 9 1014.1 1013.1 6.2
17/12:30am 18.9 18.4 17.9 94 0.6 E 17 22 9 12 1014.2 1013.2 5.4
17/12:00am 19.4 18.3 17.7 90 1.1 ESE 20 28 11 15 1014.2 1013.2 2.6
 
Date/Time
EST
Temp
°C
App
Temp
°C
Dew
Point
°C
Rel
Hum
%
Delta-T
°C
Wind Press
QNH
hPa
Press
MSL
hPa
Rain since
9am
mm
Dir  Spd
km/h
Gust
km/h
Spd
kts
Gust
kts
16/11:30pm 19.9 21.3 18.7 93 0.8 SE 9 13 5 7 1014.6 1013.6 1.8
16/11:00pm 20.0 22.0 18.8 93 0.8 SE 6 7 3 4 1014.8 1013.8 1.4
16/10:30pm 20.2 22.3 18.9 92 0.8 SSE 6 9 3 5 1014.7 1013.7 1.4
16/10:00pm 20.4 23.7 19.1 92 0.8 CALM 0 0 0 0 1014.8 1013.8 1.2
16/09:30pm 20.2 22.3 19.0 93 0.8 N 6 6 3 3 1014.8 1013.8 1.2
16/09:00pm 20.1 22.1 18.8 92 0.8 ESE 6 7 3 4 1014.4 1013.4 1.2
16/08:30pm 20.1 21.5 18.6 91 0.9 ESE 9 11 5 6 1014.1 1013.1 1.2
16/08:00pm 21.5 21.0 17.9 80 2.2 SSE 17 22 9 12 1013.8 1012.9 0.4
16/07:30pm 21.3 20.4 17.7 80 2.2 SSE 19 26 10 14 1013.5 1012.6 0.4
16/07:00pm 21.5 20.6 17.7 79 2.4 SSE 19 24 10 13 1013.1 1012.2 0.4
16/06:30pm 21.8 20.8 17.6 77 2.6 SSE 19 26 10 14 1012.7 1011.8 0.4
16/06:00pm 22.0 21.5 17.8 77 2.6 SSE 17 22 9 12 1012.6 1011.7 0.4
16/05:30pm 21.9 20.8 17.7 77 2.6 SSE 20 26 11 14 1012.3 1011.4 0.4
16/05:00pm 22.9 22.9 18.2 75 3.0 SE 15 24 8 13 1012.1 1011.1 0.4
16/04:30pm 21.0 21.7 18.8 87 1.4 ENE 13 20 7 11 1011.9 1010.9 0.4
16/04:00pm 21.0 18.9 18.0 83 1.9 E 26 35 14 19 1011.8 1010.8 0.2
16/03:30pm 25.3 23.6 16.2 57 5.6 SE 20 30 11 16 1011.6 1010.6 0.0
16/03:00pm 25.3 24.2 16.4 57 5.5 S 17 22 9 12 1011.7 1010.7 0.0
16/02:30pm 25.1 24.5 15.7 56 5.7 S 13 24 7 13 1012.0 1011.0 0.0
16/02:00pm 24.7 23.4 15.9 58 5.4 S 17 24 9 13 1012.4 1011.5 0.0
16/01:30pm 24.3 23.1 16.0 60 5.1 SSE 17 30 9 16 1012.6 1011.7 0.0
16/01:00pm 24.4 23.5 15.9 59 5.2 SSE 15 20 8 11 1012.9 1012.0 0.0
16/12:30pm 23.4 22.7 15.5 61 4.8 SSE 13 17 7 9 1013.5 1012.6 0.0
16/12:00pm 23.4 22.9 16.0 63 4.5 SE 13 20 7 11 1014.1 1013.1 0.0
16/11:30am 23.3 22.2 15.4 61 4.8 S 15 22 8 12 1014.6 1013.6 0.0
16/11:00am 22.9 22.7 15.7 64 4.4 SSE 11 17 6 9 1015.1 1014.1 0.0
16/10:30am 22.3 22.2 15.9 67 3.9 S 11 17 6 9 1015.4 1014.4 0.0
16/10:00am 21.7 21.0 15.5 68 3.7 SSE 13 17 7 9 1015.7 1014.7 0.0
16/09:30am 21.8 21.5 15.4 67 3.8 SSE 11 15 6 8 1015.7 1014.7 0.0
16/09:00am 21.6 20.4 16.1 71 3.3 SSE 17 22 9 12 1015.5 1014.5 0.0
16/08:30am 21.0 19.2 15.5 71 3.3 SSE 19 22 10 12 1015.3 1014.3 0.0
16/08:00am 20.5 19.1 15.5 73 3.0 SSE 17 24 9 13 1015.4 1014.4 0.0
16/07:30am 19.8 18.5 15.7 77 2.5 SSE 17 20 9 11 1015.3 1014.3 0.0
16/07:00am 19.4 18.6 16.1 81 2.0 SSE 15 20 8 11 1014.9 1013.9 0.0
16/06:30am 19.0 17.7 15.7 81 2.0 SSE 17 22 9 12 1014.6 1013.6 0.0
16/06:00am 18.7 17.8 15.8 83 1.7 SSE 15 19 8 10 1014.4 1013.4 0.0
16/05:30am 18.8 17.5 15.7 82 1.8 S 17 24 9 13 1013.9 1013.0 0.0
16/05:00am 18.8 18.2 15.7 82 1.8 SSE 13 19 7 10 1013.5 1012.6 0.0
16/04:30am 18.7 18.0 15.4 81 2.0 S 13 19 7 10 1013.1 1012.2 0.0
16/04:00am 18.6 17.9 15.3 81 2.0 SSE 13 19 7 10 1013.0 1012.1 0.0
16/03:30am 18.7 18.0 15.4 81 2.0 SSE 13 19 7 10 1012.9 1012.0 0.0
16/03:00am 18.7 17.6 15.4 81 2.0 SSE 15 20 8 11 1012.8 1011.9 0.0
16/02:30am 18.7 17.3 15.6 82 1.8 SSE 17 24 9 13 1012.7 1011.8 0.0
16/02:00am 18.5 17.9 15.6 83 1.7 SSE 13 19 7 10 1013.0 1012.1 0.0
16/01:30am 18.7 17.7 15.6 82 1.8 SSE 15 19 8 10 1013.2 1012.3 0.0
16/01:00am 19.0 18.0 15.7 81 2.0 SSE 15 24 8 13 1013.6 1012.7 0.0
16/12:30am 18.9 18.4 16.0 83 1.7 SSE 13 20 7 11 1014.2 1013.2 0.0
16/12:00am 18.5 18.3 15.6 83 1.7 SSE 11 13 6 7 1014.3 1013.3 0.0
 
Date/Time
EST
Temp
°C
App
Temp
°C
Dew
Point
°C
Rel
Hum
%
Delta-T
°C
Wind Press
QNH
hPa
Press
MSL
hPa
Rain since
9am
mm
Dir  Spd
km/h
Gust
km/h
Spd
kts
Gust
kts
15/11:30pm 19.5 18.5 15.6 78 2.3 SE 15 24 8 13 1014.4 1013.4 0.0
15/11:00pm 19.3 18.8 15.8 80 2.1 SSE 13 19 7 10 1014.7 1013.7 0.0
15/10:30pm 19.4 18.9 15.9 80 2.1 SSE 13 17 7 9 1014.8 1013.8 0.0
15/10:00pm 20.1 18.8 15.7 76 2.6 SSE 17 26 9 14 1014.5 1013.5 0.0
15/09:30pm 20.0 17.7 15.6 76 2.6 SSE 22 30 12 16 1014.2 1013.2 0.0
15/09:00pm 20.5 18.3 15.9 75 2.8 SSE 22 30 12 16 1014.1 1013.1 0.0
15/08:30pm 21.0 17.7 16.0 73 3.0 SSE 28 37 15 20 1013.7 1012.8 0.0
15/08:00pm 21.4 17.9 16.4 73 3.0 SSE 30 41 16 22 1013.3 1012.4 0.0
15/07:30pm 23.9 21.7 14.9 57 5.4 SE 20 28 11 15 1012.7 1011.8 0.0
15/07:00pm 23.9 23.3 15.7 60 5.0 ESE 13 17 7 9 1012.0 1011.0 0.0
15/06:30pm 23.3 22.6 15.4 61 4.8 E 13 17 7 9 1011.5 1010.5 0.0
15/06:00pm 24.5 23.2 14.9 55 5.8 E 15 20 8 11 1011.4 1010.4 0.0
15/05:30pm 25.7 24.5 13.9 48 7.0 E 13 17 7 9 1011.0 1010.0 0.0
15/05:00pm 26.1 25.4 14.2 48 7.1 E 11 20 6 11 1010.9 1009.9 0.0
15/04:30pm 26.2 26.2 14.3 48 7.1 ENE 7 20 4 11 1010.8 1009.8 0.0
15/04:00pm 26.2 25.5 14.3 48 7.2 ENE 11 15 6 8 1010.9 1009.9 0.0
15/03:30pm 26.0 26.5 15.1 51 6.6 ESE 6 9 3 5 1011.1 1010.1 0.0
15/03:00pm 25.9 25.3 14.7 50 6.8 ESE 11 19 6 10 1011.3 1010.3 0.0
15/02:30pm 25.6 25.3 14.4 50 6.7 ESE 9 13 5 7 1011.6 1010.6 0.0
15/02:00pm 25.0 24.2 15.0 53 6.0 ESE 13 17 7 9 1011.9 1010.9 0.0
15/01:30pm 25.3 25.1 15.6 55 5.9 SE 11 19 6 10 1012.1 1011.1 0.0
15/01:00pm 24.9 24.6 14.4 52 6.3 NE 9 17 5 9 1012.5 1011.6 0.0
15/12:30pm 24.9 24.1 14.1 51 6.4 S 11 19 6 10 1012.8 1011.9 0.0
15/12:00pm 25.3 24.9 16.2 57 5.6 S 13 20 7 11 1013.2 1012.3 0.0
15/11:30am 24.5 24.1 16.2 60 5.1 SSE 13 22 7 12 1013.6 1012.7 0.0
15/11:00am 24.1 23.7 15.1 57 5.4 S 11 20 6 11 1013.9 1013.0 0.0
15/10:30am 23.2 21.7 14.2 57 5.3 SSE 15 22 8 12 1014.2 1013.2 0.0
15/10:00am 23.0 22.5 15.8 64 4.4 SSE 13 20 7 11 1014.5 1013.5 0.0
15/09:30am 22.0 21.4 15.6 67 3.9 S 13 19 7 10 1014.9 1013.9 0.0
15/09:00am 21.1 21.6 16.5 75 2.8 SSW 9 13 5 7 1015.1 1014.1 2.6
15/08:30am 19.9 20.9 16.3 80 2.2 SSW 6 9 3 5 1015.1 1014.1 2.6
15/08:00am 19.8 20.5 17.0 84 1.7 SSW 9 13 5 7 1014.9 1013.9 2.6
15/07:30am 18.6 19.3 16.2 86 1.4 WSW 7 11 4 6 1014.6 1013.6 2.6
15/07:00am 18.2 19.1 16.7 91 0.9 SW 7 11 4 6 1014.4 1013.4 2.6
15/06:30am 17.4 19.4 16.9 97 0.3 WSW 2 9 1 5 1014.2 1013.2 2.6

Other Formats:

Comma delimited format used in spreadsheet applications
http://www.bom.gov.au/fwo/IDQ60801/IDQ60801.94398.axf

JavaScript Object Notation format (JSON) in row-major order
http://www.bom.gov.au/fwo/IDQ60801/IDQ60801.94398.json